Terminal Aerodrome Forecast
Issued by NWS Twin Cities, MN

Home | Current Version | Previous Version | Text Only | Print | Product List | Glossary Off
Versions: 1 2 3 4 5 6 7 8 9 10 11 12 13 14 15 16 17 18 19

000
FTUS43 KMPX 241500 AAA
TAFEAU
TAF AMD
KEAU 241500Z 2415/2512 30012G20KT 3SM -SN BR OVC011
      TEMPO 2415/2418 1SM -SN BR OVC012
     FM242200 31016G27KT 6SM -SHSN OVC012 PROB30 2500/2501 2SM -FZDZ
      BR
     FM250300 29009KT P6SM OVC015=

USA.gov is the U.S. government's official web portal to all federal, state and local government web resources and services.